createdAt,value
2018-03-08T00:00:09.702Z,54.47
2018-03-08T00:00:45.398Z,54.18
2018-03-08T00:01:17.025Z,54.43
2018-03-08T00:01:48.654Z,54.41
2018-03-08T00:02:20.278Z,54.57
2018-03-08T00:02:51.907Z,54.82
2018-03-08T00:03:23.530Z,54.98
2018-03-08T00:03:55.154Z,54.75
2018-03-08T00:04:26.778Z,54.94
2018-03-08T00:04:58.402Z,55.01
2018-03-08T00:05:30.030Z,54.96
2018-03-08T00:06:01.654Z,55.00
2018-03-08T00:06:33.283Z,54.98
2018-03-08T00:07:04.906Z,55.13
2018-03-08T00:07:36.530Z,55.07
2018-03-08T00:08:08.194Z,55.19
2018-03-08T00:08:39.871Z,55.11
2018-03-08T00:09:11.502Z,55.01
2018-03-08T00:09:43.129Z,55.25
2018-03-08T00:10:14.751Z,55.30
2018-03-08T00:10:46.382Z,55.52
2018-03-08T00:11:18.010Z,55.46
2018-03-08T00:11:49.644Z,55.50
2018-03-08T00:12:21.270Z,55.38
2018-03-08T00:12:52.929Z,55.33
2018-03-08T00:13:24.602Z,55.45
2018-03-08T00:13:56.286Z,55.48
2018-03-08T00:14:27.910Z,55.51
2018-03-08T00:14:59.542Z,55.49
2018-03-08T00:15:31.166Z,55.65
2018-03-08T00:16:02.793Z,55.69
2018-03-08T00:16:34.417Z,55.66
2018-03-08T00:17:06.047Z,55.52
2018-03-08T00:17:37.673Z,55.64
2018-03-08T00:18:09.302Z,55.75
2018-03-08T00:18:40.931Z,55.71
2018-03-08T00:19:12.605Z,55.73
2018-03-08T00:19:44.236Z,55.58
2018-03-08T00:20:15.863Z,55.58
2018-03-08T00:20:47.494Z,55.67
2018-03-08T00:21:19.117Z,55.58
2018-03-08T00:21:50.742Z,55.69
2018-03-08T00:22:22.370Z,55.57
2018-03-08T00:22:53.997Z,55.61
2018-03-08T00:23:25.626Z,55.74
2018-03-08T00:23:57.253Z,55.66
2018-03-08T00:24:28.930Z,55.64
2018-03-08T00:25:00.558Z,55.72
2018-03-08T00:25:32.191Z,55.77
2018-03-08T00:26:03.819Z,55.75
2018-03-08T00:26:35.446Z,55.75
2018-03-08T00:27:07.070Z,55.71
2018-03-08T00:27:38.694Z,55.77
2018-03-08T00:28:10.321Z,55.75
2018-03-08T00:28:41.950Z,55.80
2018-03-08T00:29:13.583Z,55.84
2018-03-08T00:29:45.246Z,55.82
2018-03-08T00:30:16.869Z,55.88
2018-03-08T00:30:48.495Z,55.86
2018-03-08T00:31:20.123Z,56.05
2018-03-08T00:31:51.749Z,56.00
2018-03-08T00:32:23.377Z,55.71
2018-03-08T00:32:55.003Z,55.90
2018-03-08T00:33:26.631Z,55.76
2018-03-08T00:33:58.253Z,55.67
2018-03-08T00:34:29.926Z,55.69
2018-03-08T00:35:01.554Z,55.73
2018-03-08T00:35:33.203Z,55.72
2018-03-08T00:36:04.846Z,55.79
2018-03-08T00:36:36.470Z,55.81
2018-03-08T00:37:08.094Z,55.77
2018-03-08T00:37:39.730Z,55.78
2018-03-08T00:38:11.354Z,55.51
2018-03-08T00:38:42.982Z,55.72
2018-03-08T00:39:14.610Z,55.47
2018-03-08T00:39:46.274Z,55.50
2018-03-08T00:40:17.902Z,55.68
2018-03-08T00:40:49.534Z,55.64
2018-03-08T00:41:21.162Z,55.62
2018-03-08T00:41:52.791Z,55.64
2018-03-08T00:42:24.418Z,55.66
2018-03-08T00:42:56.046Z,55.78
2018-03-08T00:43:27.734Z,55.98
2018-03-08T00:43:59.364Z,56.04
2018-03-08T00:44:30.990Z,56.18
2018-03-08T00:45:02.627Z,56.09
2018-03-08T00:45:34.256Z,56.38
2018-03-08T00:46:05.930Z,56.49
2018-03-08T00:46:37.553Z,56.54
2018-03-08T00:47:09.174Z,56.42
2018-03-08T00:47:40.802Z,56.77
2018-03-08T00:48:12.426Z,57.12
2018-03-08T00:48:44.094Z,56.61
2018-03-08T00:49:15.722Z,56.51
2018-03-08T00:49:47.366Z,56.47
2018-03-08T00:50:18.997Z,56.93
2018-03-08T00:50:50.622Z,56.91
2018-03-08T00:51:22.261Z,57.15
2018-03-08T00:51:53.890Z,57.11
2018-03-08T00:52:25.515Z,56.85
2018-03-08T00:52:57.143Z,57.00
2018-03-08T00:53:28.810Z,57.10
2018-03-08T00:54:00.434Z,56.99
2018-03-08T00:54:32.066Z,56.69
2018-03-08T00:55:03.690Z,56.84
2018-03-08T00:55:35.313Z,56.87
2018-03-08T00:56:06.940Z,56.89
2018-03-08T00:56:38.565Z,57.05
2018-03-08T00:57:10.189Z,56.93
2018-03-08T00:57:41.818Z,56.95
2018-03-08T00:58:13.448Z,56.92
2018-03-08T00:58:45.118Z,56.95
2018-03-08T00:59:16.757Z,57.11
2018-03-08T00:59:48.382Z,57.31
2018-03-08T01:00:20.070Z,57.25
2018-03-08T01:00:51.694Z,57.22
2018-03-08T01:01:23.318Z,57.03
2018-03-08T01:01:54.954Z,57.11
2018-03-08T01:02:26.583Z,57.20
2018-03-08T01:02:58.210Z,57.39
2018-03-08T01:03:29.838Z,57.33
2018-03-08T01:04:01.494Z,57.34
2018-03-08T01:04:33.126Z,57.15
2018-03-08T01:05:04.755Z,57.29
2018-03-08T01:05:36.438Z,57.50
2018-03-08T01:06:08.062Z,57.25
2018-03-08T01:06:39.696Z,57.68
2018-03-08T01:07:11.327Z,57.45
2018-03-08T01:07:42.962Z,57.61
2018-03-08T01:08:14.586Z,57.32
2018-03-08T01:08:47.260Z,57.48
2018-03-08T01:09:18.894Z,57.39
2018-03-08T01:09:50.518Z,57.73
2018-03-08T01:10:22.141Z,57.49
2018-03-08T01:10:53.814Z,57.35
2018-03-08T01:11:25.434Z,57.58
2018-03-08T01:11:57.065Z,57.53
2018-03-08T01:12:28.690Z,57.51
2018-03-08T01:13:00.313Z,57.77
2018-03-08T01:13:31.933Z,57.61
2018-03-08T01:14:03.554Z,57.61
2018-03-08T01:14:35.220Z,57.62
2018-03-08T01:15:06.850Z,57.69
2018-03-08T01:15:38.474Z,57.45
2018-03-08T01:16:10.134Z,57.54
2018-03-08T01:16:41.762Z,57.72
2018-03-08T01:17:13.386Z,57.77
2018-03-08T01:17:45.014Z,57.71
2018-03-08T01:18:16.642Z,57.70
2018-03-08T01:18:48.266Z,57.88
2018-03-08T01:19:19.930Z,57.91
2018-03-08T01:19:51.561Z,58.08
2018-03-08T01:20:23.187Z,58.06
2018-03-08T01:20:54.850Z,58.10
2018-03-08T01:21:26.474Z,57.76
2018-03-08T01:21:58.097Z,57.96
2018-03-08T01:22:29.721Z,57.85
2018-03-08T01:23:01.358Z,58.35
2018-03-08T01:23:32.985Z,58.21
2018-03-08T01:24:04.610Z,58.29
2018-03-08T01:24:36.237Z,58.47
2018-03-08T01:25:07.867Z,58.27
2018-03-08T01:25:39.491Z,58.02
2018-03-08T01:26:11.121Z,58.16
2018-03-08T01:26:42.746Z,58.23
2018-03-08T01:27:14.374Z,58.61
2018-03-08T01:27:46.026Z,58.18
2018-03-08T01:28:17.652Z,58.13
2018-03-08T01:28:49.278Z,58.16
2018-03-08T01:29:20.902Z,58.33
2018-03-08T01:29:52.578Z,58.51
2018-03-08T01:30:24.202Z,58.46
2018-03-08T01:30:55.830Z,58.65
2018-03-08T01:31:27.458Z,58.33
2018-03-08T01:31:59.079Z,58.37
2018-03-08T01:32:30.742Z,58.49
2018-03-08T01:33:02.370Z,58.50
2018-03-08T01:33:34.038Z,58.71
2018-03-08T01:34:05.662Z,58.41
2018-03-08T01:34:37.290Z,58.39
2018-03-08T01:35:08.918Z,58.46
2018-03-08T01:35:40.545Z,58.89
2018-03-08T01:36:12.166Z,58.70
2018-03-08T01:36:43.788Z,58.72
2018-03-08T01:37:15.410Z,58.84
2018-03-08T01:37:47.070Z,58.60
2018-03-08T01:38:18.698Z,58.62
2018-03-08T01:38:50.334Z,58.70
2018-03-08T01:39:21.957Z,58.82
2018-03-08T01:39:53.578Z,58.70
2018-03-08T01:40:25.206Z,58.69
2018-03-08T01:40:56.830Z,58.50
2018-03-08T01:41:28.453Z,58.62
2018-03-08T01:42:00.074Z,58.48
2018-03-08T01:42:31.746Z,58.66
2018-03-08T01:43:03.410Z,58.54
2018-03-08T01:43:35.035Z,58.53
2018-03-08T01:44:06.658Z,58.32
2018-03-08T01:44:38.285Z,58.32
2018-03-08T01:45:09.910Z,58.29
2018-03-08T01:45:41.534Z,58.43
2018-03-08T01:46:13.169Z,58.51
2018-03-08T01:46:44.806Z,58.44
2018-03-08T01:47:16.435Z,58.48
2018-03-08T01:47:48.110Z,58.44
2018-03-08T01:48:19.738Z,58.35
2018-03-08T01:48:51.363Z,58.38
2018-03-08T01:49:22.994Z,58.31
2018-03-08T01:49:54.617Z,58.31
2018-03-08T01:50:26.266Z,58.29
2018-03-08T01:50:57.930Z,58.27
2018-03-08T01:51:29.559Z,58.22
2018-03-08T01:52:01.182Z,58.31
2018-03-08T01:52:32.813Z,58.24
2018-03-08T01:53:04.438Z,58.33
2018-03-08T01:53:36.057Z,58.25
2018-03-08T01:54:07.687Z,58.22
2018-03-08T01:54:39.313Z,58.25
2018-03-08T01:55:10.982Z,58.13
2018-03-08T01:55:42.602Z,58.18
2018-03-08T01:56:14.235Z,58.21
2018-03-08T01:56:45.864Z,58.08
2018-03-08T01:57:17.538Z,58.13
2018-03-08T01:57:49.166Z,58.15
2018-03-08T01:58:20.794Z,58.11
2018-03-08T01:58:52.425Z,58.16
2018-03-08T01:59:24.046Z,57.98
2018-03-08T01:59:55.679Z,58.05
2018-03-08T02:00:27.306Z,58.05
2018-03-08T02:00:58.937Z,57.96
2018-03-08T02:01:30.565Z,57.95
2018-03-08T02:02:02.194Z,57.90
2018-03-08T02:02:33.863Z,58.11
2018-03-08T02:03:05.487Z,58.10
2018-03-08T02:03:37.119Z,58.24
2018-03-08T02:04:08.742Z,58.16
2018-03-08T02:04:40.375Z,58.18
2018-03-08T02:05:12.007Z,58.13
2018-03-08T02:05:43.631Z,58.46
2018-03-08T02:06:15.298Z,58.36
2018-03-08T02:06:46.921Z,58.22
2018-03-08T02:07:18.546Z,58.16
2018-03-08T02:07:50.166Z,58.33
2018-03-08T02:08:21.796Z,58.32
2018-03-08T02:08:53.421Z,58.16
2018-03-08T02:09:25.065Z,58.21
2018-03-08T02:09:56.693Z,58.35
2018-03-08T02:10:28.325Z,58.30
2018-03-08T02:11:00.002Z,58.20
2018-03-08T02:11:31.630Z,58.28
2018-03-08T02:12:03.262Z,58.42
2018-03-08T02:12:34.886Z,58.47
2018-03-08T02:13:06.604Z,58.58
2018-03-08T02:13:38.238Z,58.37
2018-03-08T02:14:09.862Z,58.57
2018-03-08T02:14:41.554Z,58.35
2018-03-08T02:15:13.183Z,58.46
2018-03-08T02:15:44.807Z,58.25
2018-03-08T02:16:16.478Z,58.12
2018-03-08T02:16:48.101Z,57.95
2018-03-08T02:17:19.722Z,58.12
2018-03-08T02:17:51.396Z,58.21
2018-03-08T02:18:23.018Z,58.25
2018-03-08T02:18:54.642Z,58.28
2018-03-08T02:19:26.270Z,58.29
2018-03-08T02:19:57.898Z,58.24
2018-03-08T02:20:29.518Z,58.38
2018-03-08T02:21:01.147Z,58.35
2018-03-08T02:21:32.773Z,58.38
2018-03-08T02:22:04.399Z,58.28
2018-03-08T02:22:36.026Z,58.24
2018-03-08T02:23:07.650Z,58.44
2018-03-08T02:23:39.274Z,58.57
2018-03-08T02:24:10.902Z,58.50
2018-03-08T02:24:42.580Z,58.50
2018-03-08T02:25:14.210Z,58.50
2018-03-08T02:25:45.838Z,58.31
2018-03-08T02:26:17.462Z,58.20
2018-03-08T02:26:49.084Z,58.45
2018-03-08T02:27:20.706Z,58.31
2018-03-08T02:27:52.335Z,58.45
2018-03-08T02:28:23.958Z,58.47
2018-03-08T02:28:55.578Z,58.39
2018-03-08T02:29:27.197Z,58.37
2018-03-08T02:29:58.823Z,58.72
2018-03-08T02:30:30.451Z,58.58
2018-03-08T02:31:02.074Z,58.36
2018-03-08T02:31:33.709Z,58.36
2018-03-08T02:32:05.348Z,58.50
2018-03-08T02:32:36.971Z,58.46
2018-03-08T02:33:08.599Z,58.74
2018-03-08T02:33:40.227Z,58.55
2018-03-08T02:34:11.899Z,58.46
2018-03-08T02:34:43.531Z,58.70
2018-03-08T02:35:15.158Z,58.55
2018-03-08T02:35:46.778Z,58.81
2018-03-08T02:36:18.406Z,58.63
2018-03-08T02:36:50.046Z,58.55
2018-03-08T02:37:21.672Z,58.63
2018-03-08T02:37:53.301Z,58.86
2018-03-08T02:38:24.970Z,59.04
2018-03-08T02:38:56.599Z,58.81
2018-03-08T02:39:28.223Z,58.71
2018-03-08T02:39:59.855Z,58.81
2018-03-08T02:40:31.483Z,58.75
2018-03-08T02:41:03.118Z,58.75
2018-03-08T02:41:34.749Z,58.76
2018-03-08T02:42:06.414Z,58.94
2018-03-08T02:42:38.039Z,58.82
2018-03-08T02:43:09.667Z,58.99
2018-03-08T02:43:41.302Z,58.97
2018-03-08T02:44:12.937Z,59.10
2018-03-08T02:44:44.562Z,59.06
2018-03-08T02:45:16.243Z,59.22
2018-03-08T02:45:47.869Z,59.09
2018-03-08T02:46:19.500Z,58.94
2018-03-08T02:46:51.133Z,59.26
2018-03-08T02:47:22.762Z,59.11
2018-03-08T02:47:54.390Z,59.22
2018-03-08T02:48:26.124Z,59.56
2018-03-08T02:48:57.757Z,59.49
2018-03-08T02:49:29.382Z,59.38
2018-03-08T02:50:01.006Z,59.53
2018-03-08T02:50:32.686Z,59.64
2018-03-08T02:51:04.318Z,59.79
2018-03-08T02:51:35.944Z,59.76
2018-03-08T02:52:07.574Z,59.79
2018-03-08T02:52:39.198Z,59.55
2018-03-08T02:53:10.826Z,59.60
2018-03-08T02:53:42.499Z,59.76
2018-03-08T02:54:14.130Z,59.50
2018-03-08T02:54:45.750Z,59.57
2018-03-08T02:55:17.374Z,59.52
2018-03-08T02:55:49.003Z,59.86
2018-03-08T02:56:20.639Z,59.63
2018-03-08T02:56:52.306Z,59.63
2018-03-08T02:57:23.937Z,59.65
2018-03-08T02:57:55.615Z,59.81
2018-03-08T02:58:27.239Z,59.65
2018-03-08T02:58:58.867Z,59.77
2018-03-08T02:59:30.499Z,59.61
2018-03-08T03:00:02.131Z,59.65
2018-03-08T03:00:33.766Z,59.75
2018-03-08T03:01:05.401Z,59.67
2018-03-08T03:01:37.043Z,60.01
2018-03-08T03:02:08.667Z,59.69
2018-03-08T03:02:40.334Z,59.77
2018-03-08T03:03:11.967Z,59.87
2018-03-08T03:03:43.597Z,59.75
2018-03-08T03:04:15.222Z,59.87
2018-03-08T03:04:46.847Z,59.97
2018-03-08T03:05:18.470Z,60.03
2018-03-08T03:05:50.090Z,60.11
2018-03-08T03:06:21.758Z,59.95
2018-03-08T03:06:53.389Z,59.94
2018-03-08T03:07:25.013Z,59.89
2018-03-08T03:07:56.686Z,59.80
2018-03-08T03:08:28.321Z,59.95
2018-03-08T03:08:59.946Z,59.87
2018-03-08T03:09:31.574Z,59.68
2018-03-08T03:10:03.198Z,59.76
2018-03-08T03:10:34.827Z,59.96
2018-03-08T03:11:06.484Z,59.77
2018-03-08T03:11:38.111Z,59.81
2018-03-08T03:12:09.736Z,59.95
2018-03-08T03:12:41.401Z,59.86
2018-03-08T03:13:13.031Z,59.91
2018-03-08T03:13:44.661Z,60.13
2018-03-08T03:14:16.290Z,59.88
2018-03-08T03:14:47.913Z,60.02
2018-03-08T03:15:19.538Z,60.09
2018-03-08T03:15:51.160Z,60.09
2018-03-08T03:16:22.821Z,60.05
2018-03-08T03:16:54.446Z,59.95
2018-03-08T03:17:26.070Z,60.09
2018-03-08T03:17:57.702Z,59.99
2018-03-08T03:18:29.325Z,60.13
2018-03-08T03:19:00.946Z,60.12
2018-03-08T03:19:32.574Z,59.97
2018-03-08T03:20:04.245Z,60.04
2018-03-08T03:20:35.874Z,60.09
2018-03-08T03:21:07.510Z,60.07
2018-03-08T03:21:39.133Z,60.02
2018-03-08T03:22:10.754Z,60.05
2018-03-08T03:22:42.386Z,60.55
2018-03-08T03:23:14.014Z,60.19
2018-03-08T03:23:45.644Z,60.32
2018-03-08T03:24:17.270Z,60.01
2018-03-08T03:24:48.898Z,60.32
2018-03-08T03:25:20.578Z,60.25
2018-03-08T03:25:52.205Z,60.22
2018-03-08T03:26:23.825Z,60.15
2018-03-08T03:26:55.446Z,60.10
2018-03-08T03:27:27.070Z,60.11
2018-03-08T03:27:58.694Z,60.16
2018-03-08T03:28:30.317Z,60.04
2018-03-08T03:29:01.944Z,59.89
2018-03-08T03:29:33.565Z,59.91
2018-03-08T03:30:05.196Z,59.96
2018-03-08T03:30:36.827Z,59.95
2018-03-08T03:31:08.450Z,59.90
2018-03-08T03:31:40.080Z,59.81
2018-03-08T03:32:11.711Z,60.01
2018-03-08T03:32:43.378Z,59.93
2018-03-08T03:33:15.006Z,60.10
2018-03-08T03:33:46.630Z,59.86
2018-03-08T03:34:18.253Z,59.81
2018-03-08T03:34:49.873Z,59.86
2018-03-08T03:35:21.498Z,59.86
2018-03-08T03:35:53.117Z,59.87
2018-03-08T03:36:24.798Z,59.86
2018-03-08T03:36:56.421Z,59.89
2018-03-08T03:37:28.042Z,59.89
2018-03-08T03:37:59.662Z,59.86
2018-03-08T03:38:31.282Z,59.87
2018-03-08T03:39:02.966Z,59.86
2018-03-08T03:39:34.594Z,59.86
2018-03-08T03:40:06.214Z,59.84
2018-03-08T03:40:37.846Z,59.83
2018-03-08T03:41:09.485Z,59.78
2018-03-08T03:41:41.150Z,59.86
2018-03-08T03:42:12.778Z,59.81
2018-03-08T03:42:44.403Z,59.92
2018-03-08T03:43:16.026Z,60.07
2018-03-08T03:43:47.646Z,59.71
2018-03-08T03:44:19.274Z,59.87
2018-03-08T03:44:50.897Z,59.88
2018-03-08T03:45:22.530Z,59.85
2018-03-08T03:45:54.153Z,59.76
2018-03-08T03:46:25.817Z,59.63
2018-03-08T03:46:57.481Z,59.77
2018-03-08T03:47:29.110Z,59.70
2018-03-08T03:48:00.739Z,59.70
2018-03-08T03:48:32.371Z,59.76
2018-03-08T03:49:03.998Z,59.76
2018-03-08T03:49:35.626Z,59.76
2018-03-08T03:50:07.299Z,59.77
2018-03-08T03:50:38.926Z,59.82
2018-03-08T03:51:10.547Z,59.76
2018-03-08T03:51:42.170Z,59.51
2018-03-08T03:52:13.794Z,59.74
2018-03-08T03:52:45.418Z,59.13
2018-03-08T03:53:17.049Z,58.79
2018-03-08T03:53:48.679Z,58.41
2018-03-08T03:54:20.306Z,58.04
2018-03-08T03:54:51.926Z,57.87
2018-03-08T03:55:23.606Z,57.63
2018-03-08T03:55:55.234Z,57.19
2018-03-08T03:56:26.866Z,56.75
2018-03-08T03:56:58.500Z,56.86
2018-03-08T03:57:30.125Z,56.95
2018-03-08T03:58:01.750Z,56.77
2018-03-08T03:58:33.374Z,56.17
2018-03-08T03:59:04.999Z,55.98
2018-03-08T03:59:36.625Z,55.86
2018-03-08T04:00:08.305Z,55.83
2018-03-08T04:00:39.974Z,55.70
2018-03-08T04:01:11.597Z,55.95
2018-03-08T04:01:43.227Z,56.05
2018-03-08T04:02:14.858Z,55.72
2018-03-08T04:02:46.482Z,55.77
2018-03-08T04:03:18.114Z,56.07
2018-03-08T04:03:49.742Z,56.02
2018-03-08T04:04:21.370Z,56.04
2018-03-08T04:04:53.003Z,55.97
2018-03-08T04:05:24.670Z,56.12
2018-03-08T04:05:56.299Z,56.21
2018-03-08T04:06:27.922Z,56.10
2018-03-08T04:06:59.550Z,56.52
2018-03-08T04:07:31.182Z,56.27
2018-03-08T04:08:02.811Z,56.17
2018-03-08T04:08:34.435Z,56.11
2018-03-08T04:09:06.137Z,56.06
2018-03-08T04:09:37.763Z,56.10
2018-03-08T04:10:09.391Z,56.06
2018-03-08T04:10:41.014Z,56.04
2018-03-08T04:11:12.642Z,56.02
2018-03-08T04:11:44.266Z,56.01
2018-03-08T04:12:15.983Z,55.97
2018-03-08T04:12:47.598Z,55.96
2018-03-08T04:13:19.236Z,55.96
2018-03-08T04:13:50.871Z,55.91
2018-03-08T04:14:22.498Z,55.97
2018-03-08T04:14:54.126Z,55.96
2018-03-08T04:15:25.789Z,56.00
2018-03-08T04:15:57.418Z,55.99
2018-03-08T04:16:29.054Z,55.92
2018-03-08T04:17:00.678Z,55.95
2018-03-08T04:17:32.349Z,55.91
2018-03-08T04:18:03.978Z,55.93
2018-03-08T04:18:35.606Z,55.98
2018-03-08T04:19:07.229Z,55.92
2018-03-08T04:19:38.854Z,55.93
2018-03-08T04:20:10.492Z,55.86
2018-03-08T04:20:42.131Z,55.86
2018-03-08T04:21:13.758Z,55.87
2018-03-08T04:21:45.381Z,55.93
2018-03-08T04:22:17.085Z,55.93
2018-03-08T04:22:48.750Z,56.01
2018-03-08T04:23:20.378Z,56.02
2018-03-08T04:23:52.006Z,56.05
2018-03-08T04:24:23.630Z,56.00
2018-03-08T04:24:55.258Z,56.05
2018-03-08T04:25:26.886Z,56.05
2018-03-08T04:25:58.570Z,56.04
2018-03-08T04:26:30.195Z,56.12
2018-03-08T04:27:01.818Z,56.07
2018-03-08T04:27:33.449Z,56.08
2018-03-08T04:28:05.069Z,56.09
2018-03-08T04:28:36.698Z,56.09
2018-03-08T04:29:08.321Z,56.06
2018-03-08T04:29:39.948Z,56.09
2018-03-08T04:30:11.570Z,56.11
2018-03-08T04:30:43.200Z,56.09
2018-03-08T04:31:14.879Z,56.15
2018-03-08T04:31:46.507Z,56.20
2018-03-08T04:32:18.130Z,56.24
2018-03-08T04:32:49.758Z,56.23
2018-03-08T04:33:21.387Z,56.23
2018-03-08T04:33:53.014Z,56.20
2018-03-08T04:34:24.693Z,56.20
2018-03-08T04:34:56.314Z,56.24
2018-03-08T04:35:27.942Z,56.25
2018-03-08T04:35:59.571Z,56.25
2018-03-08T04:36:31.198Z,56.26
2018-03-08T04:37:02.831Z,56.29
2018-03-08T04:37:34.462Z,56.37
2018-03-08T04:38:06.100Z,56.36
2018-03-08T04:38:37.726Z,56.36
2018-03-08T04:39:09.354Z,56.37
2018-03-08T04:39:41.030Z,56.31
2018-03-08T04:40:12.655Z,56.30
2018-03-08T04:40:44.278Z,56.29
2018-03-08T04:41:15.906Z,56.27
2018-03-08T04:41:47.529Z,56.25
2018-03-08T04:42:19.155Z,56.24
2018-03-08T04:42:50.777Z,56.26
2018-03-08T04:43:22.406Z,56.27
2018-03-08T04:43:54.034Z,56.27
2018-03-08T04:44:25.666Z,56.28
2018-03-08T04:44:57.346Z,56.33
2018-03-08T04:45:28.970Z,56.39
2018-03-08T04:46:00.598Z,56.11
2018-03-08T04:46:32.218Z,55.86
2018-03-08T04:47:03.853Z,55.52
2018-03-08T04:47:35.484Z,55.39
2018-03-08T04:48:07.114Z,55.34
2018-03-08T04:48:38.742Z,55.53
2018-03-08T04:49:12.394Z,55.29
2018-03-08T04:49:44.050Z,55.33
2018-03-08T04:50:15.742Z,55.12
2018-03-08T04:50:47.366Z,55.09
2018-03-08T04:51:18.994Z,55.11
2018-03-08T04:51:50.622Z,55.14
2018-03-08T04:52:22.251Z,55.53
2018-03-08T04:52:53.874Z,55.85
2018-03-08T04:53:25.506Z,56.19
2018-03-08T04:53:57.126Z,56.27
2018-03-08T04:54:29.683Z,56.34
2018-03-08T04:55:01.701Z,56.15
2018-03-08T04:55:33.394Z,56.29
2018-03-08T04:56:05.018Z,56.16
2018-03-08T04:56:36.676Z,56.24
2018-03-08T04:57:08.301Z,56.16
2018-03-08T04:57:39.926Z,56.34
2018-03-08T04:58:11.555Z,56.30
2018-03-08T04:58:43.182Z,56.35
2018-03-08T04:59:14.810Z,56.30
2018-03-08T04:59:47.338Z,56.35
2018-03-08T05:00:19.054Z,56.19
2018-03-08T05:00:50.682Z,56.18
2018-03-08T05:01:22.310Z,56.26
2018-03-08T05:01:53.934Z,56.28
2018-03-08T05:02:25.561Z,56.43
2018-03-08T05:02:57.186Z,56.30
2018-03-08T05:03:28.810Z,56.29
2018-03-08T05:04:00.433Z,56.35
2018-03-08T05:04:32.057Z,56.35
2018-03-08T05:05:03.686Z,56.51
2018-03-08T05:05:35.313Z,56.42
2018-03-08T05:06:06.933Z,56.60
2018-03-08T05:06:38.553Z,56.49
2018-03-08T05:07:10.223Z,56.61
2018-03-08T05:07:41.898Z,56.58
2018-03-08T05:08:13.531Z,56.62
2018-03-08T05:08:45.160Z,56.54
2018-03-08T05:09:16.786Z,56.68
2018-03-08T05:09:48.414Z,56.80
2018-03-08T05:10:20.042Z,56.86
2018-03-08T05:10:51.715Z,56.82
2018-03-08T05:11:23.341Z,56.88
2018-03-08T05:11:54.966Z,57.00
2018-03-08T05:12:26.594Z,57.00
2018-03-08T05:12:58.269Z,56.95
2018-03-08T05:13:29.894Z,56.84
2018-03-08T05:14:01.523Z,56.93
2018-03-08T05:14:33.151Z,57.06
2018-03-08T05:15:04.774Z,56.82
2018-03-08T05:15:36.397Z,57.06
2018-03-08T05:16:08.023Z,56.94
2018-03-08T05:16:39.645Z,57.11
2018-03-08T05:17:11.274Z,57.22
2018-03-08T05:17:42.957Z,57.43
2018-03-08T05:18:14.586Z,57.27
2018-03-08T05:18:46.214Z,57.31
2018-03-08T05:19:17.851Z,57.29
2018-03-08T05:19:49.486Z,57.41
2018-03-08T05:20:21.115Z,57.36
2018-03-08T05:20:52.738Z,57.35
2018-03-08T05:21:24.367Z,57.29
2018-03-08T05:21:55.989Z,57.29
2018-03-08T05:22:27.618Z,57.29
2018-03-08T05:22:59.294Z,57.32
2018-03-08T05:23:30.923Z,57.19
2018-03-08T05:24:02.553Z,57.20
2018-03-08T05:24:34.182Z,57.15
2018-03-08T05:25:05.810Z,57.33
2018-03-08T05:25:37.438Z,57.43
2018-03-08T05:26:09.067Z,57.80
2018-03-08T05:26:40.695Z,57.76
2018-03-08T05:27:12.322Z,57.91
2018-03-08T05:27:43.954Z,57.92
2018-03-08T05:28:15.625Z,57.96
2018-03-08T05:28:47.255Z,57.86
2018-03-08T05:29:18.880Z,58.13
2018-03-08T05:29:50.502Z,58.05
2018-03-08T05:30:22.121Z,57.90
2018-03-08T05:30:53.864Z,57.83
2018-03-08T05:31:25.494Z,57.85
2018-03-08T05:31:57.117Z,57.81
2018-03-08T05:32:28.747Z,57.82
2018-03-08T05:33:00.373Z,57.87
2018-03-08T05:33:32.046Z,57.81
2018-03-08T05:34:03.679Z,57.75
2018-03-08T05:34:35.302Z,57.79
2018-03-08T05:35:06.938Z,57.71
2018-03-08T05:35:38.603Z,57.72
2018-03-08T05:36:10.225Z,57.67
2018-03-08T05:36:41.849Z,57.60
2018-03-08T05:37:13.522Z,57.61
2018-03-08T05:37:45.150Z,57.62
2018-03-08T05:38:16.782Z,57.63
2018-03-08T05:38:48.414Z,57.60
2018-03-08T05:39:20.041Z,57.64
2018-03-08T05:39:51.667Z,57.60
2018-03-08T05:40:23.336Z,57.76
2018-03-08T05:40:54.979Z,57.62
2018-03-08T05:41:26.610Z,57.71
2018-03-08T05:41:58.234Z,57.59
2018-03-08T05:42:29.922Z,57.51
2018-03-08T05:43:01.547Z,57.61
2018-03-08T05:43:33.178Z,57.59
2018-03-08T05:44:04.802Z,57.63
2018-03-08T05:44:36.426Z,57.61
2018-03-08T05:45:08.058Z,57.63
2018-03-08T05:45:39.681Z,57.63
2018-03-08T05:46:11.306Z,57.70
2018-03-08T05:46:42.926Z,57.57
2018-03-08T05:47:14.560Z,57.51
2018-03-08T05:47:46.231Z,57.68
2018-03-08T05:48:17.860Z,57.77
2018-03-08T05:48:49.490Z,57.49
2018-03-08T05:49:21.119Z,57.53
2018-03-08T05:49:52.746Z,57.53
2018-03-08T05:50:24.366Z,57.60
2018-03-08T05:50:56.038Z,57.59
2018-03-08T05:51:27.667Z,57.63
2018-03-08T05:51:59.295Z,57.54
2018-03-08T05:52:30.926Z,57.51
2018-03-08T05:53:02.607Z,57.48
2018-03-08T05:53:34.239Z,57.64
2018-03-08T05:54:05.866Z,57.49
2018-03-08T05:54:37.551Z,57.40
2018-03-08T05:55:09.150Z,57.49
2018-03-08T05:55:40.778Z,57.69
2018-03-08T05:56:12.406Z,57.75
2018-03-08T05:56:44.032Z,57.79
2018-03-08T05:57:15.659Z,57.63
2018-03-08T05:57:47.283Z,57.65
2018-03-08T05:58:18.962Z,57.59
2018-03-08T05:58:50.594Z,57.59
2018-03-08T05:59:22.224Z,57.52
2018-03-08T05:59:53.855Z,57.51
2018-03-08T06:00:25.486Z,57.57
2018-03-08T06:00:57.113Z,57.76
2018-03-08T06:01:28.742Z,57.75
2018-03-08T06:02:00.374Z,57.75
2018-03-08T06:02:31.998Z,57.72
2018-03-08T06:03:03.626Z,57.66
2018-03-08T06:03:35.257Z,57.59
2018-03-08T06:04:06.883Z,57.63
2018-03-08T06:04:38.518Z,57.65
2018-03-08T06:05:10.143Z,57.68
2018-03-08T06:05:41.770Z,57.84
2018-03-08T06:06:13.399Z,57.70
2018-03-08T06:06:45.022Z,57.74
2018-03-08T06:07:16.653Z,57.60
2018-03-08T06:07:48.277Z,57.67
2018-03-08T06:08:19.906Z,57.70
2018-03-08T06:08:51.607Z,57.88
2018-03-08T06:09:23.230Z,57.79
2018-03-08T06:09:54.850Z,57.86
2018-03-08T06:10:26.474Z,57.82
2018-03-08T06:10:58.099Z,57.77
2018-03-08T06:11:29.722Z,57.66
2018-03-08T06:12:01.354Z,57.79
2018-03-08T06:12:32.979Z,57.79
2018-03-08T06:13:04.606Z,58.00
2018-03-08T06:13:36.230Z,57.76
2018-03-08T06:14:07.898Z,57.78
2018-03-08T06:14:39.565Z,57.92
2018-03-08T06:15:11.198Z,58.02
2018-03-08T06:15:42.824Z,57.87
2018-03-08T06:16:14.455Z,57.76
2018-03-08T06:16:46.077Z,57.79
2018-03-08T06:17:17.706Z,57.82
2018-03-08T06:17:49.334Z,57.81
2018-03-08T06:18:20.967Z,58.02
2018-03-08T06:18:52.590Z,57.92
2018-03-08T06:19:24.237Z,57.96
2018-03-08T06:19:55.922Z,57.99
2018-03-08T06:20:27.545Z,58.02
2018-03-08T06:20:59.174Z,58.06
2018-03-08T06:21:30.798Z,57.99
2018-03-08T06:22:02.426Z,57.95
2018-03-08T06:22:34.068Z,58.09
2018-03-08T06:23:05.696Z,57.99
2018-03-08T06:23:37.367Z,58.00
2018-03-08T06:24:08.994Z,57.99
2018-03-08T06:24:40.622Z,58.05
2018-03-08T06:25:12.253Z,57.94
2018-03-08T06:25:43.886Z,57.97
2018-03-08T06:26:15.593Z,58.04
2018-03-08T06:26:47.211Z,58.11
2018-03-08T06:27:18.926Z,58.05
2018-03-08T06:27:50.552Z,58.16
2018-03-08T06:28:22.197Z,58.16
2018-03-08T06:28:53.826Z,58.19
2018-03-08T06:29:25.450Z,58.10
2018-03-08T06:29:57.074Z,58.06
2018-03-08T06:30:28.699Z,58.35
2018-03-08T06:31:00.358Z,58.17
2018-03-08T06:31:31.982Z,58.08
2018-03-08T06:32:03.602Z,58.07
2018-03-08T06:32:35.274Z,58.16
2018-03-08T06:33:06.904Z,58.33
2018-03-08T06:33:38.530Z,58.37
2018-03-08T06:34:10.203Z,58.56
2018-03-08T06:34:41.830Z,58.55
2018-03-08T06:35:13.453Z,58.55
2018-03-08T06:35:45.081Z,58.60
2018-03-08T06:36:16.707Z,58.54
2018-03-08T06:36:48.341Z,58.54
2018-03-08T06:37:19.966Z,58.62
2018-03-08T06:37:51.586Z,58.57
2018-03-08T06:38:23.218Z,58.62
2018-03-08T06:38:54.899Z,58.58
2018-03-08T06:39:26.522Z,58.66
2018-03-08T06:39:58.150Z,58.58
2018-03-08T06:40:29.780Z,58.75
2018-03-08T06:41:01.411Z,58.75
2018-03-08T06:41:33.039Z,58.63
2018-03-08T06:42:04.666Z,58.74
2018-03-08T06:42:36.290Z,58.56
2018-03-08T06:43:07.913Z,58.53
2018-03-08T06:43:39.538Z,58.55
2018-03-08T06:44:11.211Z,58.57
2018-03-08T06:44:42.838Z,58.61
2018-03-08T06:45:14.468Z,58.51
2018-03-08T06:45:46.099Z,58.51
2018-03-08T06:46:17.730Z,58.54
2018-03-08T06:46:49.354Z,58.57
2018-03-08T06:47:20.978Z,58.52